createdAt,value
2022-11-24T00:02:17.810Z,94837.38
2022-11-24T00:04:44.391Z,94846.28
2022-11-24T00:07:10.911Z,94847.75
2022-11-24T00:09:37.454Z,94851.06
2022-11-24T00:12:04.340Z,94852.31
2022-11-24T00:14:31.052Z,94847.34
2022-11-24T00:16:57.739Z,94846.97
2022-11-24T00:19:24.310Z,94851.00
2022-11-24T00:21:50.803Z,94866.56
2022-11-24T00:24:17.315Z,94859.50
2022-11-24T00:26:43.793Z,94863.47
2022-11-24T00:29:11.365Z,94857.47
2022-11-24T00:31:41.255Z,94859.59
2022-11-24T00:34:11.280Z,94867.28
2022-11-24T00:36:38.366Z,94879.16
2022-11-24T00:39:15.823Z,94868.47
2022-11-24T00:41:42.863Z,94876.09
2022-11-24T00:44:09.418Z,94873.16
2022-11-24T00:46:36.006Z,94874.81
2022-11-24T00:49:03.047Z,94880.78
2022-11-24T00:51:30.108Z,94885.97
2022-11-24T00:53:57.573Z,94886.50
2022-11-24T00:56:25.064Z,94888.63
2022-11-24T00:58:51.950Z,94892.56
2022-11-24T01:01:23.800Z,94891.34
2022-11-24T01:03:50.890Z,94888.91
2022-11-24T01:06:22.943Z,94893.22
2022-11-24T01:08:49.502Z,94889.63
2022-11-24T01:11:30.286Z,94901.28
2022-11-24T01:13:58.931Z,94897.09
2022-11-24T01:16:30.395Z,94897.53
2022-11-24T01:18:57.022Z,94908.13
2022-11-24T01:21:23.883Z,94906.84
2022-11-24T01:23:50.827Z,94907.50
2022-11-24T01:26:20.290Z,94915.03
2022-11-24T01:28:47.942Z,94912.03
2022-11-24T01:31:15.300Z,94915.13
2022-11-24T01:33:41.899Z,94911.97
2022-11-24T01:36:08.439Z,94921.53
2022-11-24T01:38:35.030Z,94914.41
2022-11-24T01:41:03.555Z,94921.53
2022-11-24T01:43:30.094Z,94914.41
2022-11-24T01:45:57.133Z,94918.56
2022-11-24T01:48:28.855Z,94921.50
2022-11-24T01:51:10.033Z,94930.53
2022-11-24T01:53:37.151Z,94932.84
2022-11-24T01:56:04.344Z,94917.47
2022-11-24T01:58:32.462Z,94915.22
2022-11-24T02:00:59.305Z,94922.63
2022-11-24T02:03:30.423Z,94927.41
2022-11-24T02:06:02.467Z,94934.66
2022-11-24T02:08:42.823Z,94938.25
2022-11-24T02:11:09.186Z,94939.81
2022-11-24T02:13:37.361Z,94939.84
2022-11-24T02:16:06.643Z,94946.38
2022-11-24T02:18:33.383Z,94946.78
2022-11-24T02:21:01.226Z,94946.00
2022-11-24T02:23:35.560Z,94943.25
2022-11-24T02:26:26.809Z,94938.06
2022-11-24T02:28:53.694Z,94938.50
2022-11-24T02:31:20.312Z,94938.50
2022-11-24T02:33:48.952Z,94934.44
2022-11-24T02:36:15.931Z,94936.84
2022-11-24T02:38:42.483Z,94939.09
2022-11-24T02:41:18.067Z,94938.41
2022-11-24T02:43:55.067Z,94943.50
2022-11-24T02:46:22.154Z,94940.59
2022-11-24T02:48:48.783Z,94947.13
2022-11-24T02:51:15.498Z,94947.75
2022-11-24T02:53:41.987Z,94946.53
2022-11-24T02:56:08.552Z,94949.44
2022-11-24T02:58:35.546Z,94954.94
2022-11-24T03:01:02.692Z,94946.00
2022-11-24T03:03:29.343Z,94949.75
2022-11-24T03:05:55.883Z,94955.06
2022-11-24T03:08:22.399Z,94958.03
2022-11-24T03:10:48.929Z,94964.72
2022-11-24T03:13:15.427Z,94965.25
2022-11-24T03:15:42.013Z,94951.84
2022-11-24T03:18:08.531Z,94961.81
2022-11-24T03:20:35.051Z,94962.22
2022-11-24T03:23:01.574Z,94960.28
2022-11-24T03:25:28.063Z,94962.56
2022-11-24T03:27:56.463Z,94962.94
2022-11-24T03:30:22.958Z,94966.00
2022-11-24T03:32:51.600Z,94969.41
2022-11-24T03:35:18.148Z,94949.69
2022-11-24T03:37:44.650Z,94962.50
2022-11-24T03:40:11.460Z,94960.78
2022-11-24T03:42:37.954Z,94971.06
2022-11-24T03:45:29.889Z,94960.72
2022-11-24T03:47:51.521Z,94971.03
2022-11-24T03:50:18.119Z,94964.81
2022-11-24T03:52:44.568Z,94970.09
2022-11-24T03:55:11.049Z,94970.59
2022-11-24T03:57:37.515Z,94979.16
2022-11-24T04:00:04.408Z,94969.19
2022-11-24T04:02:30.936Z,94973.47
2022-11-24T04:04:57.469Z,94977.06
2022-11-24T04:07:24.026Z,94974.56
2022-11-24T04:09:50.573Z,94968.00
2022-11-24T04:12:17.076Z,94978.72
2022-11-24T04:14:51.781Z,94981.13
2022-11-24T04:17:18.812Z,94985.81
2022-11-24T04:19:45.292Z,94990.03
2022-11-24T04:22:11.784Z,95000.19
2022-11-24T04:24:38.300Z,95001.81
2022-11-24T04:27:04.816Z,94992.78
2022-11-24T04:29:31.291Z,95004.75
2022-11-24T04:31:57.794Z,94991.97
2022-11-24T04:34:24.282Z,94994.84
2022-11-24T04:36:50.770Z,94996.31
2022-11-24T04:39:25.874Z,94995.19
2022-11-24T04:41:53.175Z,94998.44
2022-11-24T04:44:19.879Z,95019.31
2022-11-24T04:46:46.430Z,95010.72
2022-11-24T04:49:12.938Z,95026.94
2022-11-24T04:51:39.834Z,95026.31
2022-11-24T04:54:13.645Z,95034.91
2022-11-24T04:56:41.199Z,95024.31
2022-11-24T04:59:08.767Z,95021.47
2022-11-24T05:01:35.703Z,95030.56
2022-11-24T05:04:02.286Z,95024.13
2022-11-24T05:06:28.821Z,95008.97
2022-11-24T05:08:55.459Z,95009.31
2022-11-24T05:11:22.044Z,95022.16
2022-11-24T05:13:48.491Z,95015.44
2022-11-24T05:16:15.084Z,95010.81
2022-11-24T05:18:41.705Z,95020.78
2022-11-24T05:21:08.186Z,95015.81
2022-11-24T05:23:34.682Z,95021.03
2022-11-24T05:26:01.478Z,95017.16
2022-11-24T05:28:28.743Z,95026.59
2022-11-24T05:30:58.960Z,95034.06
2022-11-24T05:33:25.443Z,95020.97
2022-11-24T05:35:53.267Z,95037.44
2022-11-24T05:38:19.992Z,95038.00
2022-11-24T05:40:46.777Z,95033.78
2022-11-24T05:43:15.080Z,95039.34
2022-11-24T05:45:41.769Z,95038.41
2022-11-24T05:48:10.735Z,95047.47
2022-11-24T05:50:37.243Z,95046.41
2022-11-24T05:53:12.222Z,95043.13
2022-11-24T05:55:40.071Z,95034.94
2022-11-24T05:58:08.487Z,95037.41
2022-11-24T06:00:35.938Z,95037.38
2022-11-24T06:03:02.565Z,95035.63
2022-11-24T06:05:29.348Z,95036.75
2022-11-24T06:07:56.306Z,95036.50
2022-11-24T06:10:23.467Z,95035.59
2022-11-24T06:12:50.383Z,95034.13
2022-11-24T06:15:16.922Z,95031.03
2022-11-24T06:17:43.575Z,95043.38
2022-11-24T06:20:10.943Z,95047.44
2022-11-24T06:22:37.562Z,95042.88
2022-11-24T06:25:04.637Z,95036.00
2022-11-24T06:27:31.123Z,95052.59
2022-11-24T06:29:57.627Z,95032.28
2022-11-24T06:32:24.138Z,95045.75
2022-11-24T06:34:50.615Z,95042.78
2022-11-24T06:37:17.075Z,95039.97
2022-11-24T06:39:43.565Z,95051.09
2022-11-24T06:42:10.146Z,95039.31
2022-11-24T06:44:36.739Z,95041.78
2022-11-24T06:47:03.334Z,95040.16
2022-11-24T06:49:29.890Z,95058.41
2022-11-24T06:51:56.355Z,95056.38
2022-11-24T06:54:22.971Z,95055.97
2022-11-24T06:56:49.633Z,95054.03
2022-11-24T06:59:18.562Z,95056.41
2022-11-24T07:01:45.122Z,95062.66
2022-11-24T07:04:11.602Z,95065.28
2022-11-24T07:06:38.114Z,95078.09
2022-11-24T07:09:04.592Z,95066.09
2022-11-24T07:11:31.054Z,95076.28
2022-11-24T07:14:00.128Z,95074.63
2022-11-24T07:16:27.981Z,95080.84
2022-11-24T07:18:55.094Z,95092.16
2022-11-24T07:21:22.911Z,95087.75
2022-11-24T07:23:50.138Z,95096.13
2022-11-24T07:26:17.715Z,95098.22
2022-11-24T07:28:44.737Z,95097.28
2022-11-24T07:31:13.250Z,95112.66
2022-11-24T07:33:40.203Z,95122.81
2022-11-24T07:36:07.730Z,95121.97
2022-11-24T07:38:34.896Z,95115.59
2022-11-24T07:41:01.712Z,95116.25
2022-11-24T07:43:30.382Z,95099.31
2022-11-24T07:45:56.879Z,95107.19
2022-11-24T07:48:23.499Z,95102.31
2022-11-24T07:50:55.501Z,95106.81
2022-11-24T07:53:22.733Z,95112.47
2022-11-24T07:55:56.375Z,95108.38
2022-11-24T07:58:23.261Z,95098.31
2022-11-24T08:00:49.911Z,95093.41
2022-11-24T08:03:16.551Z,95091.47
2022-11-24T08:06:07.958Z,95089.78
2022-11-24T08:08:31.022Z,95094.03
2022-11-24T08:10:57.581Z,95105.34
2022-11-24T08:13:24.083Z,95106.13
2022-11-24T08:15:50.567Z,95107.63
2022-11-24T08:18:17.152Z,95106.59
2022-11-24T08:20:45.217Z,95111.28
2022-11-24T08:23:14.956Z,95100.13
2022-11-24T08:25:41.706Z,95115.09
2022-11-24T08:28:08.363Z,95122.25
2022-11-24T08:30:34.888Z,95124.59
2022-11-24T08:33:01.439Z,95118.94
2022-11-24T08:35:28.074Z,95115.41
2022-11-24T08:37:54.788Z,95119.13
2022-11-24T08:40:23.441Z,95124.31
2022-11-24T08:42:49.960Z,95118.63
2022-11-24T08:45:20.758Z,95130.56
2022-11-24T08:47:52.153Z,95127.75
2022-11-24T08:50:18.704Z,95135.34
2022-11-24T08:52:45.196Z,95139.03
2022-11-24T08:55:11.666Z,95140.47
2022-11-24T08:57:38.144Z,95152.25
2022-11-24T09:00:05.767Z,95157.03
2022-11-24T09:02:32.536Z,95151.34
2022-11-24T09:04:58.989Z,95161.72
2022-11-24T09:07:25.547Z,95158.25
2022-11-24T09:09:52.100Z,95161.91
2022-11-24T09:12:18.571Z,95163.13
2022-11-24T09:14:45.122Z,95157.91
2022-11-24T09:17:11.715Z,95162.56
2022-11-24T09:19:42.464Z,95156.38
2022-11-24T09:22:09.123Z,95160.72
2022-11-24T09:24:35.620Z,95154.53
2022-11-24T09:27:03.372Z,95151.63
2022-11-24T09:29:29.863Z,95167.81
2022-11-24T09:31:57.305Z,95167.56
2022-11-24T09:34:26.133Z,95170.94
2022-11-24T09:36:53.770Z,95167.44
2022-11-24T09:39:20.271Z,95174.78
2022-11-24T09:42:06.689Z,95179.00
2022-11-24T09:44:52.551Z,95175.97
2022-11-24T09:47:33.249Z,95168.25
2022-11-24T09:50:04.111Z,95166.06
2022-11-24T09:52:40.186Z,95174.84
2022-11-24T09:55:42.512Z,95185.78
2022-11-24T09:58:27.563Z,95183.47
2022-11-24T10:00:55.902Z,95178.25
2022-11-24T10:03:46.577Z,95180.28
2022-11-24T10:06:39.233Z,95180.13
2022-11-24T10:09:17.763Z,95179.63
2022-11-24T10:11:51.544Z,95180.44
2022-11-24T10:14:21.078Z,95187.59
2022-11-24T10:17:07.838Z,95180.25
2022-11-24T10:19:48.759Z,95176.72
2022-11-24T10:22:28.162Z,95173.63
2022-11-24T10:25:00.358Z,95175.66
2022-11-24T10:27:33.570Z,95163.91
2022-11-24T10:30:00.502Z,95157.66
2022-11-24T10:32:32.205Z,95171.63
2022-11-24T10:35:00.820Z,95164.25
2022-11-24T10:37:37.037Z,95171.84
2022-11-24T10:40:48.656Z,95169.75
2022-11-24T10:43:11.846Z,95177.28
2022-11-24T10:45:39.121Z,95173.13
2022-11-24T10:48:10.947Z,95170.91
2022-11-24T10:50:41.076Z,95163.44
2022-11-24T10:53:18.834Z,95168.25
2022-11-24T10:55:54.495Z,95179.56
2022-11-24T10:58:37.655Z,95178.44
2022-11-24T11:01:13.479Z,95182.41
2022-11-24T11:03:51.786Z,95176.00
2022-11-24T11:06:26.414Z,95166.16
2022-11-24T11:09:08.205Z,95180.44
2022-11-24T11:11:38.963Z,95171.69
2022-11-24T11:14:06.973Z,95183.66
2022-11-24T11:16:40.448Z,95182.66
2022-11-24T11:19:50.912Z,95179.41
2022-11-24T11:22:29.188Z,95175.44
2022-11-24T11:25:10.988Z,95172.84
2022-11-24T11:27:39.336Z,95166.78
2022-11-24T11:36:10.055Z,95162.59
2022-11-24T11:38:38.658Z,95166.84
2022-11-24T11:41:05.937Z,95169.28
2022-11-24T11:43:35.090Z,95158.06
2022-11-24T11:46:15.020Z,95156.38
2022-11-24T11:48:44.516Z,95152.25
2022-11-24T11:51:33.533Z,95160.59
2022-11-24T11:54:23.125Z,95166.88
2022-11-24T11:57:11.668Z,95159.41
2022-11-24T12:00:18.100Z,95163.19
2022-11-24T12:03:08.804Z,95158.31
2022-11-24T12:05:47.604Z,95160.16
2022-11-24T12:08:56.039Z,95154.41
2022-11-24T12:11:51.104Z,95156.72
2022-11-24T12:14:39.319Z,95159.13
2022-11-24T12:17:29.512Z,95146.34
2022-11-24T12:20:17.755Z,95148.78
2022-11-24T12:22:52.506Z,95138.84
2022-11-24T12:25:39.395Z,95156.97
2022-11-24T12:28:32.979Z,95150.50
2022-11-24T12:31:30.976Z,95142.41
2022-11-24T12:34:01.845Z,95136.59
2022-11-24T12:37:06.019Z,95137.19
2022-11-24T12:39:40.895Z,95132.50
2022-11-24T12:42:30.301Z,95134.53
2022-11-24T12:45:04.076Z,95128.53
2022-11-24T12:47:49.641Z,95104.59
2022-11-24T12:50:19.381Z,95107.84
2022-11-24T12:52:58.608Z,95102.06
2022-11-24T12:55:27.003Z,95101.63
2022-11-24T12:58:10.964Z,95094.19
2022-11-24T13:01:15.916Z,95075.38
2022-11-24T13:04:05.443Z,95070.06
2022-11-24T13:06:47.458Z,95068.72
2022-11-24T13:09:15.791Z,95062.81
2022-11-24T13:11:45.705Z,95058.72
2022-11-24T13:14:15.167Z,95054.53
2022-11-24T13:17:21.223Z,95052.94
2022-11-24T13:19:38.204Z,95060.91
2022-11-24T13:22:07.738Z,95065.72
2022-11-24T13:24:36.361Z,95053.47
2022-11-24T13:27:15.491Z,95056.06
2022-11-24T13:29:46.226Z,95050.72
2022-11-24T13:32:12.595Z,95040.56
2022-11-24T13:34:39.014Z,95033.44
2022-11-24T13:37:35.278Z,95012.31
2022-11-24T13:40:31.226Z,95024.00
2022-11-24T13:42:57.781Z,95026.34
2022-11-24T13:45:39.932Z,95019.75
2022-11-24T13:48:18.942Z,95018.28
2022-11-24T13:50:51.620Z,95009.44
2022-11-24T13:53:42.461Z,95005.09
2022-11-24T13:56:22.699Z,95002.63
2022-11-24T13:58:55.585Z,95006.09
2022-11-24T14:01:25.801Z,95000.03
2022-11-24T14:07:00.117Z,94995.44
2022-11-24T14:09:52.362Z,94995.00
2022-11-24T14:12:20.407Z,94990.28
2022-11-24T14:14:51.488Z,94984.72
2022-11-24T14:17:22.003Z,94984.09
2022-11-24T14:19:50.418Z,94963.59
2022-11-24T14:22:22.680Z,94985.47
2022-11-24T14:24:57.004Z,94984.38
2022-11-24T14:27:32.674Z,94979.53
2022-11-24T14:30:17.013Z,94989.66
2022-11-24T14:33:00.653Z,94976.03
2022-11-24T14:35:32.479Z,94969.25
2022-11-24T14:38:01.228Z,94958.97
2022-11-24T14:40:47.116Z,94972.78
2022-11-24T14:43:21.449Z,94967.94
2022-11-24T14:45:55.267Z,94966.94
2022-11-24T14:48:27.815Z,94966.94
2022-11-24T14:51:14.021Z,94951.38
2022-11-24T14:53:44.887Z,94953.91
2022-11-24T14:56:23.633Z,94957.03
2022-11-24T14:58:50.403Z,94961.72
2022-11-24T15:01:37.427Z,94961.59
2022-11-24T15:04:46.256Z,94937.56
2022-11-24T15:07:25.669Z,94942.41
2022-11-24T15:09:58.358Z,94934.22
2022-11-24T15:12:27.984Z,94939.63
2022-11-24T15:14:58.031Z,94941.34
2022-11-24T15:17:27.164Z,94940.91
2022-11-24T15:20:16.837Z,94956.31
2022-11-24T15:22:46.287Z,94961.03
2022-11-24T15:25:35.538Z,94974.63
2022-11-24T15:28:04.807Z,94982.81
2022-11-24T15:30:34.398Z,94977.41
2022-11-24T15:33:01.035Z,94992.38
2022-11-24T15:35:34.424Z,94980.28
2022-11-24T15:38:00.973Z,94992.84
2022-11-24T15:40:27.507Z,94987.91
2022-11-24T15:42:55.241Z,94990.50
2022-11-24T15:45:23.550Z,94989.63
2022-11-24T15:47:50.355Z,94995.84
2022-11-24T15:50:16.983Z,94993.25
2022-11-24T15:52:44.130Z,94992.66
2022-11-24T15:55:21.513Z,94990.47
2022-11-24T15:57:48.626Z,94989.19
2022-11-24T16:00:20.441Z,94989.56
2022-11-24T16:02:47.195Z,94993.94
2022-11-24T16:05:14.579Z,94991.78
2022-11-24T16:07:41.608Z,94998.56
2022-11-24T16:10:23.939Z,94995.03
2022-11-24T16:12:50.496Z,94993.13
2022-11-24T16:15:17.236Z,94995.50
2022-11-24T16:17:44.124Z,94989.50
2022-11-24T16:20:13.869Z,94996.38
2022-11-24T16:22:40.586Z,94984.03
2022-11-24T16:25:07.612Z,94992.59
2022-11-24T16:27:34.310Z,94995.22
2022-11-24T16:30:05.043Z,94992.94
2022-11-24T16:32:31.636Z,94991.47
2022-11-24T16:34:58.170Z,94997.56
2022-11-24T16:37:24.698Z,94986.84
2022-11-24T16:39:51.168Z,94996.59
2022-11-24T16:42:17.644Z,94997.66
2022-11-24T16:44:44.280Z,94996.38
2022-11-24T16:47:10.774Z,94990.69
2022-11-24T16:49:37.231Z,95000.50
2022-11-24T16:52:03.766Z,95001.22
2022-11-24T16:54:32.889Z,95000.63
2022-11-24T16:56:59.638Z,94996.84
2022-11-24T16:59:26.115Z,94991.47
2022-11-24T17:01:52.685Z,94974.19
2022-11-24T17:04:19.364Z,94987.59
2022-11-24T17:06:45.848Z,94987.72
2022-11-24T17:09:12.327Z,94972.78
2022-11-24T17:11:38.784Z,94971.16
2022-11-24T17:14:05.476Z,94974.22
2022-11-24T17:16:32.019Z,94982.47
2022-11-24T17:18:58.615Z,94974.44
2022-11-24T17:21:26.779Z,94976.72
2022-11-24T17:23:57.810Z,94975.41
2022-11-24T17:26:24.898Z,94967.88
2022-11-24T17:28:51.526Z,94964.22
2022-11-24T17:31:22.486Z,94965.59
2022-11-24T17:33:53.184Z,94954.00
2022-11-24T17:36:20.630Z,94951.88
2022-11-24T17:38:47.594Z,94962.06
2022-11-24T17:41:14.034Z,94967.38
2022-11-24T17:43:40.528Z,94959.53
2022-11-24T17:46:07.397Z,94967.34
2022-11-24T17:48:35.196Z,94967.72
2022-11-24T17:51:03.995Z,94964.13
2022-11-24T17:53:30.997Z,94961.69
2022-11-24T17:56:01.410Z,94962.47
2022-11-24T17:58:29.009Z,94958.97
2022-11-24T18:00:55.652Z,94968.94
2022-11-24T18:03:22.270Z,94984.22
2022-11-24T18:05:48.772Z,94977.75
2022-11-24T18:08:15.252Z,94972.16
2022-11-24T18:10:41.756Z,94970.00
2022-11-24T18:13:08.304Z,94985.19
2022-11-24T18:15:36.285Z,94994.69
2022-11-24T18:18:02.890Z,94990.63
2022-11-24T18:20:29.406Z,94990.88
2022-11-24T18:23:05.657Z,94999.47
2022-11-24T18:25:32.675Z,95003.22
2022-11-24T18:27:59.186Z,95001.94
2022-11-24T18:30:25.666Z,94991.91
2022-11-24T18:32:52.114Z,94994.72
2022-11-24T18:35:18.676Z,94989.03
2022-11-24T18:37:47.704Z,94991.75
2022-11-24T18:40:14.396Z,95005.84
2022-11-24T18:42:40.895Z,94996.22
2022-11-24T18:45:07.851Z,95000.38
2022-11-24T18:47:34.346Z,94990.72
2022-11-24T18:50:00.791Z,94992.09
2022-11-24T18:52:27.276Z,94992.44
2022-11-24T18:54:53.759Z,94987.03
2022-11-24T18:57:20.223Z,94988.31
2022-11-24T18:59:46.703Z,94991.94
2022-11-24T19:02:13.244Z,94987.25
2022-11-24T19:04:44.885Z,94980.88
2022-11-24T19:07:11.455Z,94976.00
2022-11-24T19:09:37.957Z,94972.91
2022-11-24T19:12:04.520Z,94970.47
2022-11-24T19:14:31.011Z,94969.19
2022-11-24T19:17:00.897Z,94952.81
2022-11-24T19:19:29.664Z,94951.41
2022-11-24T19:21:56.146Z,94948.81
2022-11-24T19:24:22.619Z,94958.91
2022-11-24T19:26:49.124Z,94960.59
2022-11-24T19:29:15.582Z,94954.91
2022-11-24T19:31:42.086Z,94959.91
2022-11-24T19:34:11.215Z,94959.78
2022-11-24T19:36:40.045Z,94979.06
2022-11-24T19:39:07.132Z,94972.38
2022-11-24T19:41:33.735Z,94965.88
2022-11-24T19:44:00.538Z,94970.81
2022-11-24T19:46:28.832Z,94974.13
2022-11-24T19:48:56.436Z,94969.22
2022-11-24T19:51:25.921Z,94962.66
2022-11-24T19:53:53.020Z,94963.66
2022-11-24T19:56:24.360Z,94952.22
2022-11-24T19:58:51.783Z,94960.59
2022-11-24T20:01:28.252Z,94965.53
2022-11-24T20:04:00.478Z,94963.84
2022-11-24T20:06:33.844Z,94962.16
2022-11-24T20:09:01.068Z,94950.56
2022-11-24T20:11:28.323Z,94964.38
2022-11-24T20:13:56.167Z,94968.28
2022-11-24T20:16:26.412Z,94959.78
2022-11-24T20:18:53.588Z,94963.81
2022-11-24T20:21:21.851Z,94965.09
2022-11-24T20:23:58.326Z,94960.25
2022-11-24T20:26:27.224Z,94965.34
2022-11-24T20:28:55.536Z,94963.50
2022-11-24T20:31:25.215Z,94966.81
2022-11-24T20:33:51.928Z,94968.19
2022-11-24T20:36:26.131Z,94979.22
2022-11-24T20:38:53.282Z,94974.09
2022-11-24T20:41:22.485Z,94987.00
2022-11-24T20:43:49.691Z,94974.59
2022-11-24T20:46:20.992Z,94973.38
2022-11-24T20:48:49.027Z,94993.69
2022-11-24T20:51:18.735Z,94984.78
2022-11-24T20:53:45.253Z,94979.06
2022-11-24T20:56:15.070Z,94981.44
2022-11-24T20:58:42.220Z,94983.84
2022-11-24T21:01:11.850Z,94968.88
2022-11-24T21:03:43.023Z,94985.91
2022-11-24T21:06:11.166Z,94981.47
2022-11-24T21:08:38.699Z,94983.66
2022-11-24T21:11:06.196Z,94994.56
2022-11-24T21:13:34.434Z,95004.97
2022-11-24T21:16:06.588Z,95000.72
2022-11-24T21:18:33.741Z,95003.38
2022-11-24T21:21:00.384Z,94988.34
2022-11-24T21:23:26.842Z,94979.06
2022-11-24T21:25:53.367Z,94995.28
2022-11-24T21:28:19.874Z,94992.59
2022-11-24T21:30:46.392Z,94999.53
2022-11-24T21:33:12.868Z,94994.97
2022-11-24T21:35:39.397Z,94992.69
2022-11-24T21:38:05.875Z,94994.31
2022-11-24T21:40:32.335Z,95004.81
2022-11-24T21:42:59.018Z,95018.22
2022-11-24T21:45:26.231Z,95020.06
2022-11-24T21:47:52.779Z,95016.56
2022-11-24T21:50:19.245Z,95014.97
2022-11-24T21:52:45.797Z,95010.34
2022-11-24T21:55:12.359Z,95007.22
2022-11-24T21:57:38.827Z,95029.19
2022-11-24T22:00:06.558Z,95034.28
2022-11-24T22:02:33.167Z,95041.56
2022-11-24T22:04:59.700Z,95031.53
2022-11-24T22:07:30.888Z,95042.50
2022-11-24T22:09:59.814Z,95048.97
2022-11-24T22:12:26.315Z,95042.75
2022-11-24T22:14:52.790Z,95056.56
2022-11-24T22:17:19.369Z,95052.53
2022-11-24T22:19:45.817Z,95054.56
2022-11-24T22:22:12.327Z,95047.09
2022-11-24T22:24:39.120Z,95047.69
2022-11-24T22:27:05.741Z,95058.41
2022-11-24T22:29:32.226Z,95054.47
2022-11-24T22:31:58.795Z,95038.91
2022-11-24T22:34:25.308Z,95044.44
2022-11-24T22:36:51.777Z,95052.19
2022-11-24T22:39:18.259Z,95050.34
2022-11-24T22:41:45.012Z,95066.81
2022-11-24T22:44:11.506Z,95060.28
2022-11-24T22:46:37.983Z,95070.72
2022-11-24T22:49:04.514Z,95084.09
2022-11-24T22:51:33.229Z,95084.03
2022-11-24T22:54:04.035Z,95075.94
2022-11-24T22:56:30.739Z,95094.41
2022-11-24T22:58:57.755Z,95098.28
2022-11-24T23:01:25.223Z,95105.59
2022-11-24T23:03:52.771Z,95101.94
2022-11-24T23:06:21.806Z,95097.41
2022-11-24T23:08:49.311Z,95091.59
2022-11-24T23:11:36.586Z,95100.22
2022-11-24T23:14:04.347Z,95104.97
2022-11-24T23:16:31.166Z,95096.09
2022-11-24T23:18:57.966Z,95094.81
2022-11-24T23:21:27.208Z,95117.50
2022-11-24T23:23:54.651Z,95104.94
2022-11-24T23:26:24.038Z,95098.41
2022-11-24T23:28:50.604Z,95094.69
2022-11-24T23:31:20.600Z,95078.34
2022-11-24T23:33:47.494Z,95071.25
2022-11-24T23:36:16.406Z,95075.31
2022-11-24T23:38:46.044Z,95068.09
2022-11-24T23:41:15.096Z,95058.63
2022-11-24T23:43:42.339Z,95062.34
2022-11-24T23:46:10.912Z,95069.03
2022-11-24T23:48:37.744Z,95074.50
2022-11-24T23:51:12.670Z,95081.56
2022-11-24T23:53:39.564Z,95082.03
2022-11-24T23:56:06.529Z,95084.59
2022-11-24T23:58:33.563Z,95076.03
